In Rescue
 
Open Full Screen Window  High Contrast Mode
November 25, 2020 5:42 AM EST
Present Weather: Mist
Weather Information
Wind Direction
  ---
Wind Speed
  00 kt (0 mph)
Wind Gust
  00 kt (0 mph)
Altimeter
29.87 in
Visibility
3/4 SM
Temperature
01° C
34° F
Dewpoint
01° C
34° F
Humidity
100%
1hr Rain Fall
00.00 in.
24hr Rain Fall
00.00 in.
Sky Condition
Overcast @ 700 ft
IFR

METAR KERY 251042Z AUTO 00000KT 3/4SM BR OVC007 01/01 A2987 RMK AO2 T00070007

FAA Disclaimer: The data displayed is for advisory purposes only and is not to be used for flight planning or operations.